createdAt,value
2023-02-27T00:01:36.078Z,4.22
2023-02-27T00:03:40.768Z,4.45
2023-02-27T00:05:40.673Z,4.72
2023-02-27T00:08:06.708Z,5.40
2023-02-27T00:10:24.967Z,5.07
2023-02-27T00:12:40.608Z,5.20
2023-02-27T00:14:51.783Z,5.30
2023-02-27T00:17:07.061Z,4.57
2023-02-27T00:19:21.591Z,5.34
2023-02-27T00:21:38.270Z,4.89
2023-02-27T00:23:57.092Z,4.80
2023-02-27T00:26:03.954Z,5.58
2023-02-27T00:28:17.745Z,5.32
2023-02-27T00:30:16.453Z,5.49
2023-02-27T00:32:30.362Z,4.82
2023-02-27T00:34:26.502Z,5.19
2023-02-27T00:36:31.867Z,5.44
2023-02-27T00:38:34.628Z,5.23
2023-02-27T00:40:28.230Z,5.03
2023-02-27T00:42:33.380Z,5.51
2023-02-27T00:44:38.646Z,5.29
2023-02-27T00:47:13.314Z,4.91
2023-02-27T00:49:25.327Z,5.05
2023-02-27T00:51:13.209Z,5.34
2023-02-27T00:53:08.780Z,5.45
2023-02-27T00:55:34.842Z,6.06
2023-02-27T00:57:40.429Z,5.34
2023-02-27T00:59:28.159Z,5.62
2023-02-27T01:01:33.290Z,5.83
2023-02-27T01:03:47.092Z,6.22
2023-02-27T01:05:41.084Z,6.03
2023-02-27T01:07:44.391Z,6.62
2023-02-27T01:09:36.887Z,6.79
2023-02-27T01:11:39.185Z,6.39
2023-02-27T01:13:53.707Z,6.72
2023-02-27T01:15:51.962Z,6.72
2023-02-27T01:17:49.154Z,7.01
2023-02-27T01:19:22.666Z,6.42
2023-02-27T01:21:19.060Z,6.56
2023-02-27T01:23:34.044Z,6.73
2023-02-27T01:25:49.926Z,6.74
2023-02-27T01:27:55.061Z,6.96
2023-02-27T01:30:01.095Z,6.47
2023-02-27T01:32:00.238Z,5.88
2023-02-27T01:34:03.150Z,6.25
2023-02-27T01:36:26.346Z,5.72
2023-02-27T01:38:47.507Z,5.89
2023-02-27T01:40:50.454Z,5.64
2023-02-27T01:43:08.433Z,6.22
2023-02-27T01:45:29.223Z,6.50
2023-02-27T01:47:42.052Z,6.15
2023-02-27T01:49:59.299Z,6.66
2023-02-27T01:52:13.591Z,7.06
2023-02-27T01:54:27.545Z,6.63
2023-02-27T01:56:30.607Z,6.43
2023-02-27T01:58:27.877Z,5.94
2023-02-27T02:00:46.757Z,6.65
2023-02-27T02:02:55.636Z,6.65
2023-02-27T02:05:03.269Z,6.23
2023-02-27T02:07:09.299Z,5.97
2023-02-27T02:09:15.382Z,6.86
2023-02-27T02:11:19.950Z,7.28
2023-02-27T02:13:24.528Z,6.42
2023-02-27T02:15:26.074Z,6.71
2023-02-27T02:17:40.248Z,5.90
2023-02-27T02:19:55.862Z,5.86
2023-02-27T02:22:26.576Z,5.74
2023-02-27T02:25:00.530Z,5.56
2023-02-27T02:27:30.146Z,6.50
2023-02-27T02:29:56.067Z,6.18
2023-02-27T02:32:16.577Z,5.55
2023-02-27T02:34:47.484Z,5.42
2023-02-27T02:37:15.466Z,6.03
2023-02-27T02:39:40.030Z,6.23
2023-02-27T02:42:01.096Z,6.33
2023-02-27T02:44:14.232Z,6.65
2023-02-27T02:46:43.760Z,6.00
2023-02-27T02:48:49.467Z,6.36
2023-02-27T02:51:17.000Z,6.97
2023-02-27T02:53:37.321Z,6.89
2023-02-27T02:56:04.722Z,7.09
2023-02-27T02:58:31.786Z,7.81
2023-02-27T03:01:04.062Z,7.96
2023-02-27T03:03:42.778Z,8.08
2023-02-27T03:06:31.040Z,8.61
2023-02-27T03:09:06.574Z,7.70
2023-02-27T03:11:13.530Z,8.05
2023-02-27T03:13:38.851Z,8.76
2023-02-27T03:16:03.045Z,8.17
2023-02-27T03:18:01.650Z,7.37
2023-02-27T03:20:19.851Z,8.34
2023-02-27T03:22:09.695Z,8.01
2023-02-27T03:24:19.637Z,8.42
2023-02-27T03:26:35.528Z,7.59
2023-02-27T03:28:51.972Z,8.25
2023-02-27T03:31:10.040Z,8.16
2023-02-27T03:33:39.310Z,8.50
2023-02-27T03:35:48.389Z,8.87
2023-02-27T03:38:09.539Z,9.19
2023-02-27T03:40:50.929Z,8.43
2023-02-27T03:43:17.677Z,8.94
2023-02-27T03:45:50.735Z,9.84
2023-02-27T03:48:07.521Z,9.29
2023-02-27T03:50:29.686Z,9.82
2023-02-27T03:52:55.633Z,9.74
2023-02-27T03:55:24.082Z,9.19
2023-02-27T03:57:49.333Z,9.08
2023-02-27T04:00:04.022Z,9.64
2023-02-27T04:15:02.718Z,9.03
2023-02-27T04:17:24.585Z,9.27
2023-02-27T04:19:57.759Z,9.75
2023-02-27T04:22:36.442Z,9.79
2023-02-27T04:25:15.376Z,9.12
2023-02-27T04:27:35.284Z,9.47
2023-02-27T04:30:02.181Z,9.75
2023-02-27T04:32:31.880Z,10.29
2023-02-27T04:35:13.719Z,10.56
2023-02-27T04:37:54.739Z,11.10
2023-02-27T04:40:24.642Z,12.34
2023-02-27T04:42:21.289Z,19.94
2023-02-27T04:44:46.709Z,17.09
2023-02-27T04:47:13.539Z,17.51
2023-02-27T04:49:31.032Z,11.66
2023-02-27T04:51:54.647Z,20.92
2023-02-27T04:54:22.387Z,20.61
2023-02-27T04:56:35.330Z,14.92
2023-02-27T04:58:59.682Z,15.10
2023-02-27T05:01:23.066Z,15.12
2023-02-27T05:03:32.692Z,13.98
2023-02-27T05:05:58.133Z,15.06
2023-02-27T05:08:09.144Z,13.05
2023-02-27T05:10:44.857Z,11.33
2023-02-27T05:13:22.481Z,10.47
2023-02-27T05:15:46.734Z,17.62
2023-02-27T05:18:13.875Z,26.42
2023-02-27T05:20:32.700Z,13.78
2023-02-27T05:23:13.576Z,15.36
2023-02-27T05:25:32.643Z,19.89
2023-02-27T05:27:59.351Z,131.44
2023-02-27T05:30:35.573Z,118.96
2023-02-27T05:32:55.732Z,50.71
2023-02-27T05:35:36.487Z,27.92
2023-02-27T05:37:46.085Z,22.50
2023-02-27T05:40:12.783Z,16.16
2023-02-27T05:42:38.310Z,16.58
2023-02-27T05:44:54.911Z,13.66
2023-02-27T05:47:21.080Z,15.23
2023-02-27T05:49:47.743Z,13.25
2023-02-27T05:52:03.747Z,12.77
2023-02-27T05:54:34.913Z,13.63
2023-02-27T05:56:51.608Z,11.67
2023-02-27T05:59:22.299Z,12.21
2023-02-27T06:01:33.005Z,11.84
2023-02-27T06:03:58.895Z,14.74
2023-02-27T06:06:15.409Z,13.51
2023-02-27T06:08:32.376Z,12.97
2023-02-27T06:10:59.452Z,11.64
2023-02-27T06:13:13.710Z,17.38
2023-02-27T06:15:32.556Z,17.82
2023-02-27T06:17:59.594Z,16.29
2023-02-27T06:20:26.358Z,13.99
2023-02-27T06:22:39.642Z,13.80
2023-02-27T06:24:59.118Z,13.14
2023-02-27T06:27:21.758Z,12.72
2023-02-27T06:29:47.999Z,13.85
2023-02-27T06:32:15.780Z,14.03
2023-02-27T06:34:32.625Z,13.63
2023-02-27T06:36:52.168Z,13.83
2023-02-27T06:39:18.299Z,13.23
2023-02-27T06:41:04.634Z,12.47
2023-02-27T06:43:30.927Z,14.54
2023-02-27T06:45:36.510Z,13.59
2023-02-27T06:48:11.716Z,14.03
2023-02-27T06:50:48.477Z,13.86
2023-02-27T06:53:10.409Z,14.08
2023-02-27T06:55:26.443Z,14.12
2023-02-27T06:57:51.260Z,12.23
2023-02-27T07:00:17.317Z,12.88
2023-02-27T07:02:41.189Z,13.79
2023-02-27T07:05:09.336Z,14.41
2023-02-27T07:07:40.937Z,12.64
2023-02-27T07:09:58.694Z,13.71
2023-02-27T07:12:25.660Z,13.60
2023-02-27T07:14:44.391Z,13.30
2023-02-27T07:17:10.988Z,14.24
2023-02-27T07:19:15.863Z,13.63
2023-02-27T07:21:42.409Z,12.16
2023-02-27T07:24:06.615Z,13.22
2023-02-27T07:26:28.933Z,12.08
2023-02-27T07:29:00.713Z,11.10
2023-02-27T07:31:07.431Z,11.81
2023-02-27T07:33:41.672Z,11.94
2023-02-27T07:36:16.565Z,11.65
2023-02-27T07:38:22.322Z,11.88
2023-02-27T07:40:48.443Z,12.83
2023-02-27T07:43:14.949Z,10.52
2023-02-27T07:45:41.689Z,10.18
2023-02-27T07:48:08.128Z,11.04
2023-02-27T07:50:32.634Z,12.78
2023-02-27T07:52:46.716Z,22.88
2023-02-27T07:55:15.371Z,10.29
2023-02-27T07:57:33.526Z,10.50
2023-02-27T07:59:51.477Z,9.06
2023-02-27T08:02:01.283Z,9.98
2023-02-27T08:04:18.427Z,9.57
2023-02-27T08:06:32.729Z,10.73
2023-02-27T08:08:47.321Z,9.20
2023-02-27T08:11:03.824Z,9.88
2023-02-27T08:15:54.284Z,9.11
2023-02-27T08:18:08.920Z,8.51
2023-02-27T08:20:24.595Z,7.20
2023-02-27T08:22:40.854Z,6.30
2023-02-27T08:25:16.103Z,6.49
2023-02-27T08:27:16.056Z,6.47
2023-02-27T08:29:51.045Z,5.52
2023-02-27T08:32:17.119Z,5.19
2023-02-27T08:34:30.157Z,5.09
2023-02-27T08:36:57.403Z,5.95
2023-02-27T08:39:24.171Z,6.07
2023-02-27T08:41:25.340Z,5.21
2023-02-27T08:43:51.753Z,6.12
2023-02-27T08:46:18.911Z,5.61
2023-02-27T08:48:32.531Z,4.36
2023-02-27T08:50:47.233Z,5.01
2023-02-27T08:53:06.701Z,4.59
2023-02-27T08:55:33.410Z,4.39
2023-02-27T08:57:59.280Z,4.28
2023-02-27T09:00:21.890Z,4.94
2023-02-27T09:02:33.727Z,4.31
2023-02-27T09:04:59.334Z,3.25
2023-02-27T09:07:33.953Z,3.54
2023-02-27T09:09:20.673Z,3.22
2023-02-27T09:11:49.086Z,2.50
2023-02-27T09:17:03.710Z,2.50
2023-02-27T09:19:28.113Z,2.40
2023-02-27T09:21:33.105Z,2.37
2023-02-27T09:24:19.159Z,4.78
2023-02-27T09:26:44.295Z,17.67
2023-02-27T09:29:01.820Z,37.07
2023-02-27T09:31:18.230Z,4.13
2023-02-27T09:33:32.405Z,2.78
2023-02-27T09:35:58.706Z,2.38
2023-02-27T09:38:12.736Z,2.32
2023-02-27T09:40:41.045Z,3.01
2023-02-27T09:43:09.987Z,2.80
2023-02-27T09:45:39.151Z,2.74
2023-02-27T09:48:14.222Z,2.38
2023-02-27T09:50:47.327Z,2.76
2023-02-27T09:53:14.383Z,2.71
2023-02-27T09:55:33.549Z,4.48
2023-02-27T09:58:06.732Z,3.09
2023-02-27T10:00:26.621Z,3.14
2023-02-27T10:03:04.071Z,3.03
2023-02-27T10:05:27.615Z,3.62
2023-02-27T10:08:09.516Z,3.12
2023-02-27T10:10:24.981Z,3.41
2023-02-27T10:12:53.458Z,3.33
2023-02-27T10:15:31.059Z,4.31
2023-02-27T10:17:10.778Z,3.66
2023-02-27T10:19:14.518Z,2.84
2023-02-27T10:21:31.154Z,2.89
2023-02-27T10:23:57.189Z,3.12
2023-02-27T10:26:10.053Z,2.92
2023-02-27T10:27:44.105Z,2.63
2023-02-27T10:30:12.945Z,2.61
2023-02-27T10:33:55.884Z,2.41
2023-02-27T10:35:45.783Z,2.43
2023-02-27T10:37:16.382Z,2.43
2023-02-27T10:39:03.751Z,2.46
2023-02-27T10:40:35.334Z,2.60
2023-02-27T10:42:15.842Z,2.77
2023-02-27T10:44:42.680Z,2.42
2023-02-27T10:46:51.351Z,2.76
2023-02-27T10:49:13.558Z,2.75
2023-02-27T10:51:44.545Z,2.20
2023-02-27T10:54:13.882Z,2.40
2023-02-27T10:56:20.625Z,2.34
2023-02-27T10:58:28.783Z,1.91
2023-02-27T11:00:38.932Z,2.40
2023-02-27T11:02:51.542Z,1.98
2023-02-27T11:05:34.768Z,2.46
2023-02-27T11:07:49.104Z,2.29
2023-02-27T11:10:04.668Z,2.33
2023-02-27T11:12:21.186Z,1.98
2023-02-27T11:14:25.225Z,2.42
2023-02-27T11:16:32.477Z,2.28
2023-02-27T11:18:57.849Z,1.71
2023-02-27T11:21:24.223Z,1.61
2023-02-27T11:23:00.653Z,1.93
2023-02-27T11:25:15.179Z,1.98
2023-02-27T11:27:26.256Z,1.84
2023-02-27T11:29:48.093Z,2.22
2023-02-27T11:32:09.825Z,2.30
2023-02-27T11:34:09.461Z,2.19
2023-02-27T11:36:23.894Z,2.03
2023-02-27T11:38:36.665Z,2.53
2023-02-27T11:40:56.207Z,2.19
2023-02-27T11:43:02.247Z,2.04
2023-02-27T11:46:10.350Z,2.06
2023-02-27T11:48:01.305Z,2.35
2023-02-27T11:50:31.400Z,2.03
2023-02-27T11:52:58.313Z,1.84
2023-02-27T11:55:27.902Z,1.89
2023-02-27T11:57:54.535Z,1.69
2023-02-27T12:00:38.706Z,1.79
2023-02-27T12:03:04.837Z,1.93
2023-02-27T12:05:48.168Z,1.70
2023-02-27T12:08:14.380Z,1.79
2023-02-27T12:10:41.842Z,1.67
2023-02-27T12:12:49.350Z,1.84
2023-02-27T12:15:15.348Z,2.16
2023-02-27T12:17:38.471Z,2.07
2023-02-27T12:20:01.277Z,1.81
2023-02-27T12:22:32.004Z,2.03
2023-02-27T12:25:08.228Z,2.17
2023-02-27T12:27:36.422Z,2.03
2023-02-27T12:29:54.361Z,2.00
2023-02-27T12:32:25.394Z,2.54
2023-02-27T12:34:48.245Z,2.46
2023-02-27T12:37:02.733Z,2.19
2023-02-27T12:39:28.596Z,2.09
2023-02-27T12:41:23.244Z,2.04
2023-02-27T12:43:44.257Z,2.06
2023-02-27T12:46:21.303Z,2.23
2023-02-27T12:49:09.099Z,1.99
2023-02-27T12:51:41.586Z,2.33
2023-02-27T12:54:00.190Z,2.43
2023-02-27T12:56:01.940Z,2.27
2023-02-27T12:58:42.788Z,2.40
2023-02-27T13:01:03.342Z,2.15
2023-02-27T13:03:36.232Z,2.23
2023-02-27T13:06:11.540Z,2.47
2023-02-27T13:08:38.819Z,2.46
2023-02-27T13:10:51.264Z,2.75
2023-02-27T13:13:36.808Z,2.76
2023-02-27T13:16:05.903Z,3.27
2023-02-27T13:18:49.533Z,3.10
2023-02-27T13:21:06.649Z,2.83
2023-02-27T13:23:48.146Z,2.99
2023-02-27T13:26:00.241Z,2.95
2023-02-27T13:28:23.821Z,2.88
2023-02-27T13:30:33.133Z,3.11
2023-02-27T13:33:05.139Z,2.87
2023-02-27T13:35:25.815Z,2.76
2023-02-27T13:37:55.190Z,2.77
2023-02-27T13:40:09.420Z,3.32
2023-02-27T13:42:34.018Z,3.69
2023-02-27T13:47:17.266Z,3.58
2023-02-27T13:48:53.707Z,3.41
2023-02-27T13:51:20.215Z,3.69
2023-02-27T13:53:28.043Z,3.09
2023-02-27T13:55:35.328Z,2.58
2023-02-27T13:57:53.831Z,2.75
2023-02-27T14:00:13.254Z,3.37
2023-02-27T14:02:46.600Z,3.29
2023-02-27T14:04:58.967Z,3.61
2023-02-27T14:07:02.399Z,3.21
2023-02-27T14:09:14.346Z,2.96
2023-02-27T14:11:40.045Z,2.90
2023-02-27T14:14:18.493Z,2.70
2023-02-27T14:16:31.371Z,2.92
2023-02-27T14:18:34.262Z,3.28
2023-02-27T14:20:40.653Z,3.28
2023-02-27T14:23:05.029Z,3.44
2023-02-27T14:25:28.865Z,3.18
2023-02-27T14:27:36.869Z,3.46
2023-02-27T14:29:36.268Z,3.48
2023-02-27T14:31:51.048Z,3.38
2023-02-27T14:34:05.693Z,3.14
2023-02-27T14:36:16.244Z,3.60
2023-02-27T14:38:41.067Z,3.67
2023-02-27T14:41:10.463Z,4.05
2023-02-27T14:44:07.062Z,3.56
2023-02-27T14:46:29.447Z,3.45
2023-02-27T14:48:38.171Z,3.43
2023-02-27T14:51:04.150Z,3.36
2023-02-27T14:53:23.952Z,3.12
2023-02-27T14:55:30.116Z,3.37
2023-02-27T14:57:55.885Z,3.83
2023-02-27T15:00:11.465Z,3.67
2023-02-27T15:02:27.927Z,3.40
2023-02-27T15:04:01.416Z,3.51
2023-02-27T15:06:09.664Z,3.76
2023-02-27T15:08:07.623Z,3.87
2023-02-27T15:10:33.108Z,3.95
2023-02-27T15:12:38.675Z,3.83
2023-02-27T15:14:39.534Z,3.59
2023-02-27T15:17:12.346Z,3.68
2023-02-27T15:19:15.523Z,4.13
2023-02-27T15:21:29.671Z,4.27
2023-02-27T15:23:22.679Z,4.32
2023-02-27T15:26:00.427Z,4.10
2023-02-27T15:28:26.454Z,4.10
2023-02-27T15:30:43.689Z,3.96
2023-02-27T15:32:50.728Z,3.60
2023-02-27T15:35:17.493Z,4.07
2023-02-27T15:37:25.148Z,4.15
2023-02-27T15:39:47.149Z,4.35
2023-02-27T15:41:52.631Z,4.33
2023-02-27T15:43:56.938Z,4.29
2023-02-27T15:46:11.694Z,4.05
2023-02-27T15:48:37.874Z,4.75
2023-02-27T15:51:01.489Z,5.23
2023-02-27T15:53:35.653Z,5.27
2023-02-27T15:55:42.239Z,4.16
2023-02-27T15:58:16.660Z,4.79
2023-02-27T16:00:21.254Z,4.94
2023-02-27T16:02:37.317Z,4.28
2023-02-27T16:05:06.053Z,4.64
2023-02-27T16:07:18.867Z,4.34
2023-02-27T16:09:20.680Z,4.66
2023-02-27T16:11:49.491Z,4.60
2023-02-27T16:14:40.217Z,4.84
2023-02-27T16:17:03.528Z,5.03
2023-02-27T16:19:38.694Z,4.51
2023-02-27T16:22:08.021Z,5.02
2023-02-27T16:24:51.008Z,4.96
2023-02-27T16:27:17.184Z,5.38
2023-02-27T16:29:28.341Z,5.27
2023-02-27T16:31:57.084Z,5.67
2023-02-27T16:34:42.687Z,5.49
2023-02-27T16:36:57.518Z,5.67
2023-02-27T16:39:11.638Z,6.30
2023-02-27T16:41:27.809Z,6.34
2023-02-27T16:43:51.393Z,6.49
2023-02-27T16:46:08.641Z,6.04
2023-02-27T16:48:32.407Z,6.36
2023-02-27T16:50:53.277Z,6.35
2023-02-27T16:52:59.609Z,6.75
2023-02-27T16:54:31.863Z,6.92
2023-02-27T16:56:55.641Z,7.00
2023-02-27T16:58:59.581Z,7.05
2023-02-27T17:01:14.116Z,7.81
2023-02-27T17:02:51.680Z,7.69
2023-02-27T17:05:10.099Z,7.79
2023-02-27T17:07:25.113Z,8.47
2023-02-27T17:09:51.364Z,7.36
2023-02-27T17:12:20.159Z,7.97
2023-02-27T17:14:32.264Z,7.80
2023-02-27T17:16:47.677Z,8.34
2023-02-27T17:19:04.611Z,8.64
2023-02-27T17:20:52.332Z,12.18
2023-02-27T17:23:18.573Z,11.85
2023-02-27T17:25:44.125Z,9.77
2023-02-27T17:27:58.800Z,11.27
2023-02-27T17:30:34.700Z,10.81
2023-02-27T17:32:33.817Z,10.41
2023-02-27T17:35:08.697Z,10.30
2023-02-27T17:37:41.691Z,10.04
2023-02-27T17:39:57.457Z,9.32
2023-02-27T17:42:19.328Z,11.77
2023-02-27T17:44:32.906Z,19.44
2023-02-27T17:46:25.324Z,18.97
2023-02-27T17:48:40.983Z,17.28
2023-02-27T17:51:04.604Z,17.17
2023-02-27T17:53:16.721Z,11.55
2023-02-27T17:55:22.177Z,8.90
2023-02-27T17:57:19.035Z,10.68
2023-02-27T17:59:04.256Z,14.73
2023-02-27T18:01:37.311Z,14.62
2023-02-27T18:03:46.632Z,15.56
2023-02-27T18:06:02.514Z,15.86
2023-02-27T18:08:20.652Z,20.06
2023-02-27T18:10:06.148Z,16.30
2023-02-27T18:12:32.466Z,17.12
2023-02-27T18:14:47.718Z,21.43
2023-02-27T18:17:02.545Z,35.31
2023-02-27T18:19:18.292Z,29.61
2023-02-27T18:21:35.324Z,26.00
2023-02-27T18:23:51.545Z,21.55
2023-02-27T18:26:06.406Z,20.58
2023-02-27T18:28:17.440Z,19.51
2023-02-27T18:30:00.705Z,18.67
2023-02-27T18:31:40.746Z,20.36
2023-02-27T18:33:42.616Z,16.66
2023-02-27T18:35:22.774Z,15.69
2023-02-27T18:37:25.751Z,14.96
2023-02-27T18:39:32.163Z,14.47
2023-02-27T18:41:31.683Z,15.68
2023-02-27T18:43:20.010Z,18.25
2023-02-27T18:45:17.008Z,21.95
2023-02-27T18:47:07.336Z,22.09
2023-02-27T18:49:12.521Z,19.33
2023-02-27T18:51:12.162Z,19.48
2023-02-27T18:53:32.669Z,18.86
2023-02-27T18:55:37.156Z,18.43
2023-02-27T18:58:01.761Z,15.48
2023-02-27T19:00:10.880Z,15.73
2023-02-27T19:02:37.927Z,21.47
2023-02-27T19:05:06.136Z,20.91
2023-02-27T19:07:09.573Z,17.97
2023-02-27T19:09:32.876Z,15.80
2023-02-27T19:11:32.929Z,15.01
2023-02-27T19:13:09.450Z,13.82
2023-02-27T19:15:15.235Z,14.93
2023-02-27T19:17:03.851Z,17.00
2023-02-27T19:19:12.348Z,18.77
2023-02-27T19:21:16.909Z,17.47
2023-02-27T19:23:38.984Z,16.84
2023-02-27T19:25:53.704Z,20.97
2023-02-27T19:28:10.412Z,17.32
2023-02-27T19:30:14.535Z,16.23
2023-02-27T19:32:24.206Z,13.69
2023-02-27T19:34:21.069Z,13.60
2023-02-27T19:36:37.757Z,14.43
2023-02-27T19:38:42.526Z,15.45
2023-02-27T19:40:55.212Z,16.87
2023-02-27T19:43:09.934Z,16.81
2023-02-27T19:44:56.039Z,16.54
2023-02-27T19:47:03.264Z,17.79
2023-02-27T19:49:18.102Z,16.93
2023-02-27T19:51:10.786Z,17.03
2023-02-27T19:53:37.262Z,17.42
2023-02-27T19:55:43.548Z,15.86
2023-02-27T19:57:48.325Z,15.86
2023-02-27T20:00:01.034Z,16.60
2023-02-27T20:02:03.000Z,16.54
2023-02-27T20:03:56.055Z,17.22
2023-02-27T20:06:11.470Z,16.50
2023-02-27T20:08:28.489Z,16.52
2023-02-27T20:10:39.437Z,16.76
2023-02-27T20:12:24.520Z,17.94
2023-02-27T20:14:02.864Z,18.34
2023-02-27T20:16:17.267Z,18.93
2023-02-27T20:18:32.705Z,19.00
2023-02-27T20:20:45.329Z,18.88
2023-02-27T20:25:00.046Z,19.06
2023-02-27T20:26:45.344Z,19.34
2023-02-27T20:28:32.251Z,21.08
2023-02-27T20:30:40.240Z,21.91
2023-02-27T20:32:53.625Z,21.89
2023-02-27T20:35:19.307Z,23.72
2023-02-27T20:37:35.704Z,23.24
2023-02-27T20:39:51.310Z,22.59
2023-02-27T20:41:55.418Z,20.68
2023-02-27T20:44:10.974Z,18.58
2023-02-27T20:46:07.389Z,17.28
2023-02-27T20:48:33.377Z,17.70
2023-02-27T20:50:36.111Z,17.70
2023-02-27T20:53:02.270Z,17.93
2023-02-27T20:54:51.145Z,17.70
2023-02-27T20:56:43.276Z,18.44
2023-02-27T20:58:05.598Z,18.16
2023-02-27T21:00:32.005Z,18.09
2023-02-27T21:02:37.107Z,18.05
2023-02-27T21:05:02.763Z,18.91
2023-02-27T21:07:14.621Z,18.90
2023-02-27T21:09:13.006Z,18.59
2023-02-27T21:11:33.033Z,20.30
2023-02-27T21:13:52.080Z,19.26
2023-02-27T21:16:18.432Z,19.53
2023-02-27T21:18:33.272Z,19.52
2023-02-27T21:20:38.134Z,21.85
2023-02-27T21:25:25.165Z,21.35
2023-02-27T21:27:39.468Z,21.71
2023-02-27T21:30:13.995Z,21.83
2023-02-27T21:32:19.109Z,24.57
2023-02-27T21:34:31.487Z,25.24
2023-02-27T21:36:28.997Z,26.19
2023-02-27T21:38:54.605Z,29.50
2023-02-27T21:41:11.710Z,29.22
2023-02-27T21:43:26.864Z,28.67
2023-02-27T21:45:50.097Z,29.43
2023-02-27T21:48:04.828Z,26.27
2023-02-27T21:50:22.262Z,28.43
2023-02-27T21:52:39.238Z,29.08
2023-02-27T21:55:05.895Z,28.27
2023-02-27T21:57:16.433Z,29.06
2023-02-27T21:59:44.069Z,27.76
2023-02-27T22:01:42.145Z,26.59
2023-02-27T22:04:08.318Z,28.16
2023-02-27T22:06:04.644Z,27.00
2023-02-27T22:08:20.377Z,26.43
2023-02-27T22:10:36.421Z,27.17
2023-02-27T22:12:51.405Z,28.15
2023-02-27T22:15:13.460Z,26.67
2023-02-27T22:17:13.537Z,27.22
2023-02-27T22:19:19.921Z,25.06
2023-02-27T22:21:46.002Z,25.34
2023-02-27T22:24:00.537Z,25.38
2023-02-27T22:26:16.985Z,24.87
2023-02-27T22:28:29.782Z,27.23
2023-02-27T22:30:32.740Z,27.78
2023-02-27T22:32:35.366Z,28.61
2023-02-27T22:35:01.326Z,28.80
2023-02-27T22:37:06.603Z,31.81
2023-02-27T22:39:25.630Z,38.77
2023-02-27T22:41:51.069Z,37.52
2023-02-27T22:44:05.454Z,38.18
2023-02-27T22:46:32.119Z,33.23
2023-02-27T22:49:14.312Z,33.33
2023-02-27T22:51:34.442Z,38.37
2023-02-27T22:53:53.098Z,48.86
2023-02-27T22:56:03.296Z,69.55
2023-02-27T22:58:29.728Z,64.84
2023-02-27T23:00:43.744Z,45.08
2023-02-27T23:03:06.221Z,39.12
2023-02-27T23:05:12.020Z,34.46
2023-02-27T23:07:38.102Z,32.55
2023-02-27T23:09:54.502Z,32.38
2023-02-27T23:12:13.799Z,27.19
2023-02-27T23:14:30.161Z,24.94
2023-02-27T23:16:46.768Z,23.15
2023-02-27T23:18:45.867Z,23.05
2023-02-27T23:21:25.040Z,24.24
2023-02-27T23:23:10.130Z,25.73
2023-02-27T23:25:01.316Z,26.64
2023-02-27T23:26:48.276Z,36.72
2023-02-27T23:28:17.247Z,38.32
2023-02-27T23:29:53.172Z,38.28
2023-02-27T23:31:48.321Z,38.46
2023-02-27T23:33:24.232Z,23.69
2023-02-27T23:35:04.507Z,14.96
2023-02-27T23:36:41.060Z,14.87
2023-02-27T23:38:10.325Z,18.25
2023-02-27T23:39:54.113Z,18.26
2023-02-27T23:41:32.987Z,15.34
2023-02-27T23:43:25.734Z,11.85
2023-02-27T23:45:23.557Z,11.25
2023-02-27T23:47:08.442Z,12.05
2023-02-27T23:49:03.114Z,12.35
2023-02-27T23:50:58.121Z,10.17
2023-02-27T23:52:28.144Z,10.96
2023-02-27T23:54:04.487Z,12.22
2023-02-27T23:55:59.143Z,20.35
2023-02-27T23:57:54.149Z,30.25
2023-02-27T23:59:30.439Z,34.92
